createdAt,value
2022-08-17T00:04:11.759Z,27.31
2022-08-17T00:09:11.108Z,27.24
2022-08-17T00:14:19.979Z,27.19
2022-08-17T00:19:23.160Z,27.07
2022-08-17T00:24:22.305Z,27.01
2022-08-17T00:29:24.996Z,26.94
2022-08-17T00:34:25.445Z,26.88
2022-08-17T00:39:27.130Z,26.82
2022-08-17T00:44:30.298Z,26.78
2022-08-17T00:49:31.732Z,26.70
2022-08-17T00:54:42.123Z,26.69
2022-08-17T01:00:01.955Z,26.58
2022-08-17T01:05:03.930Z,26.50
2022-08-17T01:10:07.726Z,26.45
2022-08-17T01:15:27.376Z,26.41
2022-08-17T01:20:28.102Z,26.26
2022-08-17T01:25:30.695Z,26.25
2022-08-17T01:30:58.987Z,26.27
2022-08-17T01:35:51.517Z,26.33
2022-08-17T01:40:57.730Z,26.28
2022-08-17T01:46:02.805Z,26.32
2022-08-17T01:51:03.138Z,26.38
2022-08-17T01:56:09.526Z,26.41
2022-08-17T02:01:10.307Z,26.44
2022-08-17T02:06:27.196Z,26.42
2022-08-17T02:11:28.679Z,26.43
2022-08-17T02:16:28.869Z,26.42
2022-08-17T02:21:37.142Z,26.43
2022-08-17T02:26:37.841Z,26.41
2022-08-17T02:31:37.977Z,26.35
2022-08-17T02:36:38.111Z,26.33
2022-08-17T02:41:38.956Z,26.30
2022-08-17T02:46:38.594Z,26.26
2022-08-17T02:51:37.804Z,26.25
2022-08-17T02:56:38.305Z,26.22
2022-08-17T03:01:37.339Z,26.20
2022-08-17T03:06:44.082Z,26.17
2022-08-17T03:11:44.709Z,26.09
2022-08-17T03:16:43.885Z,26.03
2022-08-17T03:21:43.026Z,26.04
2022-08-17T03:26:43.068Z,26.03
2022-08-17T03:31:43.514Z,25.98
2022-08-17T03:36:45.390Z,25.95
2022-08-17T03:41:45.385Z,25.88
2022-08-17T03:47:04.947Z,25.83
2022-08-17T03:52:22.441Z,25.79
2022-08-17T03:57:21.919Z,25.79
2022-08-17T04:02:25.543Z,25.78
2022-08-17T04:07:27.782Z,25.78
2022-08-17T04:12:31.124Z,25.77
2022-08-17T04:17:32.292Z,25.79
2022-08-17T04:22:34.381Z,25.75
2022-08-17T04:27:34.315Z,25.75
2022-08-17T04:33:04.215Z,25.76
2022-08-17T04:37:54.437Z,25.77
2022-08-17T04:43:03.018Z,25.79
2022-08-17T04:48:04.445Z,25.62
2022-08-17T04:53:04.383Z,25.65
2022-08-17T04:58:03.515Z,25.57
2022-08-17T05:03:06.928Z,25.51
2022-08-17T05:08:08.270Z,25.58
2022-08-17T05:13:11.427Z,25.56
2022-08-17T05:18:13.342Z,25.55
2022-08-17T05:23:23.213Z,25.67
2022-08-17T05:28:28.010Z,25.74
2022-08-17T05:33:42.674Z,25.50
2022-08-17T05:38:47.035Z,25.57
2022-08-17T05:43:58.301Z,25.85
2022-08-17T05:49:08.077Z,25.63
2022-08-17T05:54:16.376Z,25.83
2022-08-17T05:59:25.683Z,25.94
2022-08-17T06:04:48.498Z,25.98
2022-08-17T06:10:15.158Z,26.25
2022-08-17T06:16:05.175Z,25.89
2022-08-17T06:22:03.365Z,26.00
2022-08-17T06:27:31.792Z,26.35
2022-08-17T06:32:34.197Z,26.32
2022-08-17T06:38:00.915Z,26.65
2022-08-17T06:43:24.501Z,26.81
2022-08-17T06:48:37.478Z,26.66
2022-08-17T06:53:45.702Z,26.86
2022-08-17T06:58:52.796Z,27.09
2022-08-17T07:04:00.319Z,27.24
2022-08-17T07:09:13.254Z,27.35
2022-08-17T07:14:39.469Z,27.54
2022-08-17T07:19:48.244Z,27.51
2022-08-17T07:24:57.411Z,27.69
2022-08-17T07:30:10.951Z,27.57
2022-08-17T07:35:16.014Z,27.88
2022-08-17T07:40:27.708Z,28.06
2022-08-17T07:51:01.133Z,28.34
2022-08-17T07:56:05.391Z,28.33
2022-08-17T08:01:09.086Z,28.73
2022-08-17T08:06:21.231Z,28.90
2022-08-17T08:11:35.101Z,29.08
2022-08-17T08:16:37.068Z,29.10
2022-08-17T08:21:46.684Z,28.94
2022-08-17T08:27:02.077Z,29.39
2022-08-17T08:32:43.561Z,29.65
2022-08-17T08:38:09.789Z,30.00
2022-08-17T08:43:23.698Z,30.48
2022-08-17T08:48:58.309Z,31.04
2022-08-17T08:54:27.320Z,31.93
2022-08-17T08:59:41.821Z,32.58
2022-08-17T09:05:13.993Z,33.18
2022-08-17T09:10:26.168Z,33.91
2022-08-17T09:15:38.592Z,34.19
2022-08-17T09:26:46.616Z,35.51
2022-08-17T09:32:02.028Z,36.27
2022-08-17T09:37:26.178Z,36.61
2022-08-17T09:42:38.327Z,37.12
2022-08-17T09:47:46.979Z,37.56
2022-08-17T09:52:47.991Z,37.47
2022-08-17T09:58:30.357Z,37.46
2022-08-17T10:04:03.065Z,37.77
2022-08-17T10:09:16.272Z,38.37
2022-08-17T10:14:37.653Z,38.51
2022-08-17T10:19:54.613Z,38.06
2022-08-17T10:25:23.974Z,38.06
2022-08-17T10:30:27.983Z,38.30
2022-08-17T10:35:36.486Z,38.77
2022-08-17T10:40:45.680Z,38.98
2022-08-17T10:46:09.450Z,39.59
2022-08-17T10:51:43.734Z,40.97
2022-08-17T10:57:02.995Z,40.29
2022-08-17T11:02:19.720Z,40.83
2022-08-17T11:07:47.422Z,40.92
2022-08-17T11:13:13.648Z,40.41
2022-08-17T11:24:39.009Z,41.45
2022-08-17T11:30:43.556Z,41.18
2022-08-17T11:35:52.913Z,41.00
2022-08-17T11:41:17.166Z,40.95
2022-08-17T11:47:00.841Z,41.24
2022-08-17T11:59:01.141Z,43.13
2022-08-17T12:04:38.123Z,44.52
2022-08-17T12:15:36.318Z,43.38
2022-08-17T12:21:18.251Z,43.75
2022-08-17T12:32:41.000Z,45.16
2022-08-17T12:38:00.111Z,45.97
2022-08-17T12:43:08.052Z,46.68
2022-08-17T12:48:31.374Z,46.00
2022-08-17T12:53:35.505Z,46.74
2022-08-17T12:58:47.833Z,46.78
2022-08-17T13:04:16.346Z,46.60
2022-08-17T13:09:40.773Z,46.47
2022-08-17T13:14:49.868Z,46.51
2022-08-17T13:19:52.363Z,46.01
2022-08-17T13:24:57.713Z,45.98
2022-08-17T13:30:06.560Z,46.62
2022-08-17T13:35:50.436Z,46.99
2022-08-17T13:40:59.683Z,46.64
2022-08-17T13:46:29.418Z,46.42
2022-08-17T13:51:39.165Z,46.02
2022-08-17T13:56:52.398Z,45.63
2022-08-17T14:01:59.023Z,44.70
2022-08-17T14:07:03.053Z,44.11
2022-08-17T14:12:03.850Z,43.20
2022-08-17T14:17:06.279Z,42.77
2022-08-17T14:22:19.740Z,42.41
2022-08-17T14:27:22.476Z,42.15
2022-08-17T14:32:27.241Z,41.95
2022-08-17T14:37:30.071Z,41.83
2022-08-17T14:42:33.293Z,42.18
2022-08-17T14:47:33.184Z,42.55
2022-08-17T14:52:34.580Z,43.06
2022-08-17T14:57:42.032Z,43.21
2022-08-17T15:02:48.619Z,43.48
2022-08-17T15:07:49.562Z,43.69
2022-08-17T15:12:49.255Z,44.22
2022-08-17T15:17:54.530Z,44.21
2022-08-17T15:22:57.476Z,44.42
2022-08-17T15:27:56.779Z,44.32
2022-08-17T15:32:58.395Z,43.91
2022-08-17T15:38:09.881Z,43.61
2022-08-17T15:43:12.352Z,43.19
2022-08-17T15:48:14.597Z,42.66
2022-08-17T15:53:16.267Z,40.81
2022-08-17T15:58:15.496Z,39.68
2022-08-17T16:03:59.392Z,38.86
2022-08-17T16:08:44.198Z,38.56
2022-08-17T16:13:51.296Z,38.22
2022-08-17T16:18:58.712Z,37.62
2022-08-17T16:24:03.912Z,37.28
2022-08-17T16:29:07.937Z,37.17
2022-08-17T16:34:16.952Z,37.12
2022-08-17T16:39:19.061Z,37.12
2022-08-17T16:44:21.110Z,37.06
2022-08-17T16:49:34.442Z,37.05
2022-08-17T16:54:39.538Z,37.07
2022-08-17T16:59:43.695Z,36.99
2022-08-17T17:04:53.589Z,36.38
2022-08-17T17:10:00.859Z,36.00
2022-08-17T17:15:02.716Z,35.88
2022-08-17T17:20:17.314Z,35.80
2022-08-17T17:25:28.690Z,35.72
2022-08-17T17:30:36.934Z,35.61
2022-08-17T17:35:51.050Z,35.45
2022-08-17T17:40:56.119Z,35.33
2022-08-17T17:46:27.292Z,35.15
2022-08-17T17:52:06.606Z,34.97
2022-08-17T17:57:05.083Z,34.81
2022-08-17T18:02:34.832Z,34.65
2022-08-17T18:07:40.609Z,34.51
2022-08-17T18:12:50.126Z,34.36
2022-08-17T18:18:33.329Z,34.21
2022-08-17T18:23:33.244Z,34.02
2022-08-17T18:28:45.673Z,33.71
2022-08-17T18:33:48.445Z,33.53
2022-08-17T18:38:47.590Z,33.33
2022-08-17T18:44:01.711Z,33.20
2022-08-17T18:49:03.863Z,33.06
2022-08-17T18:54:15.656Z,32.96
2022-08-17T18:59:33.850Z,32.88
2022-08-17T19:04:36.786Z,32.80
2022-08-17T19:09:38.875Z,32.74
2022-08-17T19:14:39.449Z,32.68
2022-08-17T19:19:45.397Z,32.58
2022-08-17T19:24:49.392Z,32.44
2022-08-17T19:29:56.315Z,32.37
2022-08-17T19:34:56.522Z,32.28
2022-08-17T19:40:07.868Z,32.21
2022-08-17T19:45:20.852Z,32.18
2022-08-17T19:50:26.708Z,32.14
2022-08-17T19:55:32.916Z,32.10
2022-08-17T20:00:40.111Z,32.05
2022-08-17T20:06:10.979Z,32.01
2022-08-17T20:11:11.449Z,31.98
2022-08-17T20:16:13.573Z,31.94
2022-08-17T20:21:20.187Z,31.83
2022-08-17T20:26:24.196Z,31.71
2022-08-17T20:31:45.638Z,31.57
2022-08-17T20:37:00.166Z,31.47
2022-08-17T20:42:09.417Z,31.39
2022-08-17T20:47:14.131Z,31.31
2022-08-17T20:52:16.725Z,31.24
2022-08-17T20:57:48.660Z,31.10
2022-08-17T21:02:52.157Z,31.04
2022-08-17T21:07:58.059Z,30.93
2022-08-17T21:13:05.670Z,30.85
2022-08-17T21:18:18.516Z,30.77
2022-08-17T21:23:44.059Z,30.65
2022-08-17T21:29:00.542Z,30.59
2022-08-17T21:34:29.076Z,30.42
2022-08-17T21:39:34.861Z,30.42
2022-08-17T21:44:36.878Z,30.39
2022-08-17T21:49:37.780Z,30.35
2022-08-17T21:54:39.036Z,30.29
2022-08-17T21:59:40.136Z,30.13
2022-08-17T22:04:42.895Z,30.09
2022-08-17T22:09:45.060Z,30.01
2022-08-17T22:14:51.728Z,29.96
2022-08-17T22:20:03.133Z,29.90
2022-08-17T22:25:04.299Z,29.87
2022-08-17T22:30:17.925Z,29.82
2022-08-17T22:35:37.184Z,29.73
2022-08-17T22:40:36.136Z,29.67
2022-08-17T22:45:47.054Z,29.56
2022-08-17T22:50:47.505Z,29.49
2022-08-17T22:56:09.705Z,29.39
2022-08-17T23:01:26.983Z,29.31
2022-08-17T23:06:27.385Z,29.30
2022-08-17T23:11:36.676Z,29.27
2022-08-17T23:16:47.411Z,29.22
2022-08-17T23:21:54.085Z,29.16
2022-08-17T23:26:53.268Z,29.06
2022-08-17T23:31:52.740Z,29.03
2022-08-17T23:36:53.318Z,28.94
2022-08-17T23:41:53.964Z,28.84
2022-08-17T23:46:53.549Z,28.78
2022-08-17T23:51:55.326Z,28.81
2022-08-17T23:56:54.336Z,28.75
